Impacts METAR Board
IDs:

KBOS - Boston/Logan Intl, MA, US

Updated at: 1500 UTC 26 Apr 2018
Potential Impact None Slight Moderate High
Time 26/03Z 26/04Z 26/05Z 26/06Z 26/07Z 26/08Z 26/09Z 26/10Z 26/11Z 26/12Z 26/13Z 26/14Z 26/15Z
Temp50 48 52 51 51 55 53 53 54 52 57 58 61
Dewpt49 48 52 51 51 55 53 53 54 52 56 56 56
Altim29.71 29.68 29.64 29.63 29.61 29.59 29.58 29.56 29.57 29.58 29.57 29.57 29.58
VIS2 3 0.5 0.5 0.5 2 0.5 0.5 4 1 10 10 10
CIG7 4 3 3 3 5 2 5 7 17 7 7 11
CoverOVCOVCOVXOVXOVXOVCOVXOVXOVCOVCOVCOVCBKN
FltCatIFRLIFRLIFRLIFRLIFRIFRLIFRLIFRIFRIFRIFRIFRMVFR
WX-RA BRBRBRFGFGBR-RA FGRA BR-RA BR-RA BR------
WDir8080110120140160160120190150210220290
WSpd6 5 4 5 4 7 3 6 3 4 9 10 8
WGst-- -- -- -- -- -- -- -- -- -- -- -- 17
Raw hourly METARs
KBOS 260254Z 08006KT 2SM -RA BR SCT003 OVC007 10/09 A2971 RMK AO2 TWR VIS 4 RAE43B45 SLP061 P0000 60014 T01000094 58014 $
KBOS 260354Z 08005KT 3SM BR FEW001 BKN004 OVC007 09/09 A2968 RMK AO2 TWR VIS 4 RAE04B36E53 SLP050 P0005 T00890089 $
KBOS 260504Z 11004KT 1/2SM R04R/3500V4500FT BR VV003 11/11 A2964 RMK AO2 SFC VIS 1 T01110111 $
KBOS 260554Z 12005KT 1/2SM R04R/2400V3000FT FG VV003 11/11 A2963 RMK AO2 SLP032 60020 T01060106 10133 20089 56029 $
KBOS 260654Z 14004KT 1/2SM R04R/2000V2800FT FG VV003 11/11 A2961 RMK AO2 SLP027 T01060106 $
KBOS 260754Z 16007KT 2SM BR OVC005 13/13 A2959 RMK AO2 SLP020 T01280128 $
KBOS 260854Z 16003KT 1/2SM R04R/2200V2400FT -RA FG VV002 12/12 A2958 RMK AO2 RAB48 SLP015 P0000 60000 T01170117 58017 $
KBOS 260954Z 12006KT 1/2SM R04R/2800V3500FT RA BR VV005 12/12 A2956 RMK AO2 SFC VIS 1 SLP010 P0006 T01170117 $
KBOS 261104Z 19003KT 4SM -RA BR OVC007 12/12 A2957 RMK AO2 VIS 2 1/2 E P0000 T01220122
KBOS 261154Z 15004KT 1SM R04R/2600V3500FT -RA BR FEW006 BKN017 OVC070 11/11 A2958 RMK AO2 SLP014 P0009 60021 70090 T01110111 10128 20100 56001
KBOS 261254Z 21009KT 10SM OVC007 14/13 A2957 RMK AO2 RAE26 SLP011 P0000 T01390133
KBOS 261354Z 22010KT 10SM OVC007 14/13 A2957 RMK AO2 SLP012 T01440133
KBOS 261454Z 29008G17KT 10SM BKN011 BKN018 BKN029 BKN200 16/13 A2958 RMK AO2 RAB41E50 SLP017 P0000 60000 T01610133 53002



Page loaded:  15:21 UTC  |   08:21 AM Pacific  |   09:21 AM Mountain  |   10:21 AM Central  |   11:21 AM Eastern

 

ADVISORIES

FORECASTS

FORECASTS

OBSERVATIONS

USER TOOLS

ABOUT US